MSC Lea — 9HA2639 — position and weather

sailwx.info

Track history (hours):
 
Tides and Currents Weather Stations Pressure Air Temp Water Temp Dewpoint Dewpoint Depression Visibility Wind Speed Wind Dir Waves Ship Positions

MSC Lea

Last reported at 2014-Jul-23 03:33 UTC. Time now 2014-Jul-23 03:43 UTC.
Position N 32°02' E 032°26'.

Length 217 m; draft 8.4 m.

Type: Ship (hazmat cat A). MMSI: 215101000.

Date/timePositionNaut miles runAvg speedWind from/ knotsBaromVisibWave heightAir tempDewpointWater temp
2014-Jul-23 03:33N 32°02' E 032°26'1313.3
2014-Jul-23 02:33N 32°03' E 032°42'2813.5
2014-Jul-23 00:30N 32°05' E 033°15'2713.7
2014-Jul-22 22:33N 32°08' E 033°46'1313.5
2014-Jul-22 21:33N 32°04' E 034°01'24 0.9
2014-Jul-21 18:21N 31°54' E 034°27'31 1.0
2014-Jul-20 12:06N 32°23' E 034°38'713.4
2014-Jul-20 11:33N 32°30' E 034°41'1313.2
2014-Jul-20 10:33N 32°43' E 034°45'  
2014-Jul-16 16:32N 36°45' E 026°29'1413.8
2014-Jul-16 15:32N 36°55' E 026°16'1313.6
2014-Jul-16 14:33N 37°06' E 026°07'1313.4
2014-Jul-16 13:33N 37°18' E 025°60'1413.6
2014-Jul-16 12:33N 37°30' E 025°53'102 2.5
2014-Jul-14 20:32N 39°12' E 025°45'2420.2
2014-Jul-14 19:21N 39°36' E 025°46'1820.3
2014-Jul-14 18:27N 39°54' E 025°49'  
Track history (hours):
 
Tides and Currents Weather Stations Pressure Air Temp Water Temp Dewpoint Dewpoint Depression Visibility Wind Speed Wind Dir Waves Ship Positions

MSC Lea

Last reported at 2014-Jul-23 03:33 UTC. Time now 2014-Jul-23 03:43 UTC.
Position N 32°02' E 032°26'.

Length 217 m; draft 8.4 m.

Type: Ship (hazmat cat A). MMSI: 215101000.

Date/timePositionNaut miles runAvg speedWind from/ knotsBaromVisibWave heightAir tempDewpointWater temp
2014-Jul-23 03:33N 32°02' E 032°26'1313.3
2014-Jul-23 02:33N 32°03' E 032°42'2813.5
2014-Jul-23 00:30N 32°05' E 033°15'2713.7
2014-Jul-22 22:33N 32°08' E 033°46'1313.5
2014-Jul-22 21:33N 32°04' E 034°01'24 0.9
2014-Jul-21 18:21N 31°54' E 034°27'31 1.0
2014-Jul-20 12:06N 32°23' E 034°38'713.4
2014-Jul-20 11:33N 32°30' E 034°41'1313.2
2014-Jul-20 10:33N 32°43' E 034°45'  
2014-Jul-16 16:32N 36°45' E 026°29'1413.8
2014-Jul-16 15:32N 36°55' E 026°16'1313.6
2014-Jul-16 14:33N 37°06' E 026°07'1313.4
2014-Jul-16 13:33N 37°18' E 025°60'1413.6
2014-Jul-16 12:33N 37°30' E 025°53'102 2.5
2014-Jul-14 20:32N 39°12' E 025°45'2420.2
2014-Jul-14 19:21N 39°36' E 025°46'1820.3
2014-Jul-14 18:27N 39°54' E 025°49'  

Dump ship's entire track history